Terminal Aerodrome Forecast
Issued by NWS

Home | Current Version | Previous Version | Graphics & Text | Print | Product List | Glossary On
Versions: 1 2 3 4 5 6 7 8 9 10 11 12 13 14 15 16
000
FTUS43 KICT 130500
TAFCNU
TAF
KCNU 130522Z 1306/1406 17016G24KT P6SM SCT100 BKN200
      TEMPO 1309/1313 BKN025
     FM131500 18025G34KT P6SM SCT030 BKN040
     FM132000 17016KT P6SM VCTS SCT030 BKN050CB
     FM140300 29015KT P6SM SCT025 BKN035=

USA.gov is the U.S. government's official web portal to all federal, state and local government web resources and services.